Time;durP1;ratioP1;P1;durP2;ratioP2;P2;SDS_P1;SDS_P2;PMS_P1;PMS_P2;Temp;Humidity;BMP_temperature;BMP_pressure;BME280_temperature;BME280_humidity;BME280_pressure;Samples;Min_cycle;Max_cycle;Signal;HPM_P1;HPM_P2
2022/03/04 00:02:36;;;;;;;17.92;11.45;;;;;;;-1.53;76.18;101768.03;10333278;28;20498;-82
2022/03/04 00:07:36;;;;;;;26.05;12.73;;;;;;;-1.53;75.55;101767.16;10304053;28;20043;-82
2022/03/04 00:12:37;;;;;;;21.15;13.57;;;;;;;-1.59;75.79;101763.91;10292463;28;20093;-82
2022/03/04 00:17:37;;;;;;;19.73;12.27;;;;;;;-1.66;75.83;101773.50;10319777;28;20062;-82
2022/03/04 00:22:38;;;;;;;23.00;13.05;;;;;;;-1.66;76.15;101770.00;10315057;28;20038;-82
2022/03/04 00:27:38;;;;;;;19.60;11.35;;;;;;;-1.56;75.31;101772.84;10322448;28;20031;-82
2022/03/04 00:32:39;;;;;;;19.73;11.48;;;;;;;-1.69;76.63;101775.72;10332486;28;20080;-82
2022/03/04 00:37:40;;;;;;;24.30;13.63;;;;;;;-1.73;76.67;101780.31;10304704;28;20109;-82
2022/03/04 00:42:41;;;;;;;21.27;13.00;;;;;;;-1.95;75.89;101783.97;10294146;28;20121;-82
2022/03/04 00:47:41;;;;;;;19.48;12.18;;;;;;;-2.15;76.53;101788.50;10330712;28;20850;-82
2022/03/04 00:52:42;;;;;;;22.30;11.80;;;;;;;-2.36;77.31;101801.63;10319319;28;20035;-82
2022/03/04 00:57:42;;;;;;;21.93;14.33;;;;;;;-2.44;77.65;101796.38;10331991;28;20034;-82
2022/03/04 01:02:43;;;;;;;31.60;14.37;;;;;;;-2.51;77.25;101792.16;10330560;28;20073;-82
2022/03/04 01:07:44;;;;;;;19.27;12.57;;;;;;;-2.50;78.19;101796.56;10314631;28;20112;-82
2022/03/04 01:12:46;;;;;;;25.77;15.60;;;;;;;-2.55;77.98;101788.34;10294326;28;20078;-82
2022/03/04 01:17:46;;;;;;;24.30;14.70;;;;;;;-2.70;78.06;101784.03;10332600;28;20041;-82
2022/03/04 01:22:46;;;;;;;23.20;15.15;;;;;;;-2.90;79.15;101790.31;10327272;28;20514;-82
2022/03/04 01:27:47;;;;;;;25.83;14.57;;;;;;;-3.02;79.76;101801.69;10276628;28;20062;-82
2022/03/04 01:32:47;;;;;;;20.60;12.07;;;;;;;-3.03;81.50;101799.88;10296119;28;20069;-82
2022/03/04 01:37:48;;;;;;;24.70;15.50;;;;;;;-3.19;81.63;101790.41;10331313;28;20050;-81
2022/03/04 01:42:48;;;;;;;13.93;10.67;;;;;;;-3.26;82.11;101788.75;10309465;28;20117;-82
2022/03/04 01:47:49;;;;;;;20.07;13.20;;;;;;;-3.21;82.18;101784.19;10289023;28;20514;-82
2022/03/04 01:52:49;;;;;;;26.03;15.33;;;;;;;-3.11;81.99;101783.59;10298755;28;20073;-82
2022/03/04 01:57:50;;;;;;;20.93;13.37;;;;;;;-2.84;82.00;101787.53;10289461;28;20461;-81
2022/03/04 02:02:51;;;;;;;26.23;13.80;;;;;;;-2.66;80.76;101784.53;10276980;28;20039;-82
2022/03/04 02:07:51;;;;;;;25.13;14.80;;;;;;;-2.57;79.86;101791.47;10331795;28;20461;-82
2022/03/04 02:12:52;;;;;;;22.80;13.53;;;;;;;-2.31;78.28;101783.28;10325989;28;20061;-81
2022/03/04 02:17:53;;;;;;;25.13;13.90;;;;;;;-2.38;77.12;101781.69;10279102;28;20402;-82
2022/03/04 02:22:53;;;;;;;25.17;15.03;;;;;;;-2.53;77.55;101779.19;10283134;28;20078;-82
2022/03/04 02:27:54;;;;;;;26.40;14.80;;;;;;;-2.63;78.64;101785.63;10337439;28;20061;-82
2022/03/04 02:32:54;;;;;;;23.93;15.90;;;;;;;-2.73;79.13;101770.88;10331107;28;20023;-81
2022/03/04 02:37:55;;;;;;;20.53;13.20;;;;;;;-2.86;79.35;101763.41;10296635;28;20117;-81
2022/03/04 02:42:56;;;;;;;23.15;14.93;;;;;;;-2.93;79.78;101760.84;10288079;28;20061;-82
2022/03/04 02:47:56;;;;;;;30.33;14.07;;;;;;;-3.07;80.16;101760.16;10320256;28;20522;-81
2022/03/04 02:52:57;;;;;;;23.57;14.37;;;;;;;-3.27;80.56;101763.88;10330125;28;20059;-82
2022/03/04 02:57:57;;;;;;;24.73;14.17;;;;;;;-3.44;81.27;101760.97;10295731;28;20456;-82
2022/03/04 03:02:58;;;;;;;23.20;13.07;;;;;;;-3.56;81.60;101781.84;10300362;28;20559;-82
2022/03/04 03:07:58;;;;;;;33.03;16.60;;;;;;;-3.61;82.30;101776.91;10334916;28;20129;-82
2022/03/04 03:12:59;;;;;;;26.83;15.40;;;;;;;-3.78;82.05;101780.94;10298328;28;20046;-81
2022/03/04 03:17:59;;;;;;;23.33;13.93;;;;;;;-3.85;82.97;101775.81;10263530;28;20027;-81
2022/03/04 03:23:00;;;;;;;26.30;14.93;;;;;;;-3.91;83.17;101783.66;10298494;28;20124;-81
2022/03/04 03:28:01;;;;;;;22.40;16.00;;;;;;;-4.03;83.03;101783.09;10317434;28;20054;-81
2022/03/04 03:33:01;;;;;;;26.00;14.80;;;;;;;-4.18;83.40;101783.81;10334652;28;20427;-81
2022/03/04 03:38:02;;;;;;;29.83;15.93;;;;;;;-4.25;83.81;101787.25;10295150;28;20109;-81
2022/03/04 03:43:03;;;;;;;27.17;14.17;;;;;;;-4.40;83.58;101786.31;10315432;28;20386;-81
2022/03/04 03:48:04;;;;;;;23.03;14.43;;;;;;;-4.32;84.17;101793.28;10294684;28;20105;-81
2022/03/04 03:53:05;;;;;;;23.17;14.43;;;;;;;-4.18;84.69;101789.81;10295503;28;20117;-81
2022/03/04 03:58:05;;;;;;;26.87;14.00;;;;;;;-4.21;84.64;101786.91;10334296;28;20077;-81
2022/03/04 04:03:08;;;;;;;24.10;17.33;;;;;;;-4.29;84.92;101782.50;10319447;28;20054;-81
2022/03/04 04:08:08;;;;;;;31.58;15.68;;;;;;;-4.21;84.86;101794.56;10303130;28;20093;-81
2022/03/04 04:13:08;;;;;;;29.10;15.73;;;;;;;-3.96;85.29;101797.53;10293335;28;20793;-82
2022/03/04 04:18:09;;;;;;;26.93;14.70;;;;;;;-3.74;84.60;101790.81;10332642;28;20061;-81
2022/03/04 04:23:09;;;;;;;26.40;16.40;;;;;;;-3.60;83.96;101799.22;10331046;28;20136;-81
2022/03/04 04:28:10;;;;;;;24.27;16.13;;;;;;;-3.59;84.15;101794.25;10276514;28;20186;-81
2022/03/04 04:33:11;;;;;;;26.50;17.20;;;;;;;-3.30;83.33;101799.38;10293524;28;20039;-81
2022/03/04 04:38:11;;;;;;;26.30;14.33;;;;;;;-3.19;82.79;101810.88;10317153;28;20066;-80
2022/03/04 04:43:12;;;;;;;31.07;17.70;;;;;;;-2.92;82.03;101807.16;10292600;28;20493;-80
2022/03/04 04:48:12;;;;;;;34.22;17.42;;;;;;;-2.82;81.18;101802.38;10314887;28;20130;-80
2022/03/04 04:53:12;;;;;;;18.80;11.03;;;;;;;-2.71;80.37;101800.16;10331672;28;20070;-81
2022/03/04 04:58:13;;;;;;;22.07;13.27;;;;;;;-2.58;79.56;101799.91;10307253;28;20075;-81
2022/03/04 05:03:13;;;;;;;20.67;13.57;;;;;;;-2.70;79.30;101800.31;10331094;28;20084;-81
2022/03/04 05:08:15;;;;;;;24.73;14.97;;;;;;;-2.76;79.43;101802.16;10274692;28;20062;-80
2022/03/04 05:13:16;;;;;;;29.17;16.02;;;;;;;-2.68;78.51;101808.19;10287381;28;20448;-80
2022/03/04 05:18:16;;;;;;;27.63;17.33;;;;;;;-2.77;78.42;101809.69;10293348;28;20126;-82
2022/03/04 05:23:59;;;;;;;27.60;16.30;;;;;;;-2.89;78.89;101816.84;10308737;28;20126;-78
2022/03/04 05:28:37;;;;;;;25.25;14.77;;;;;;;-3.05;79.49;101820.16;10290661;28;20031;-78
2022/03/04 05:33:37;;;;;;;21.63;11.57;;;;;;;-3.05;80.08;101821.84;10322594;28;20056;-79
2022/03/04 05:38:38;;;;;;;33.20;16.87;;;;;;;-2.83;79.58;101827.81;10328288;28;20118;-80
2022/03/04 05:43:39;;;;;;;21.83;10.77;;;;;;;-2.95;78.59;101829.88;10290131;28;20038;-80
2022/03/04 05:48:40;;;;;;;26.83;16.07;;;;;;;-3.04;79.11;101836.47;10287559;28;20046;-78
2022/03/04 05:53:40;;;;;;;19.43;10.27;;;;;;;-3.22;78.27;101835.19;10304387;28;20039;-79
2022/03/04 05:58:41;;;;;;;32.27;17.63;;;;;;;-3.19;78.63;101841.63;10286389;28;20140;-80
2022/03/04 06:03:41;;;;;;;31.93;13.83;;;;;;;-3.16;79.21;101846.16;10321157;28;20042;-79
2022/03/04 06:08:42;;;;;;;27.77;15.37;;;;;;;-3.15;79.82;101848.00;10296661;28;20114;-80
2022/03/04 06:13:42;;;;;;;27.73;16.20;;;;;;;-3.18;80.08;101858.81;10296869;28;20057;-80
2022/03/04 06:18:43;;;;;;;28.33;14.37;;;;;;;-3.27;80.58;101870.53;10313139;28;20049;-80
2022/03/04 06:23:44;;;;;;;28.90;14.93;;;;;;;-3.33;80.34;101869.78;10310129;28;20156;-80
2022/03/04 06:28:46;;;;;;;28.98;15.57;;;;;;;-3.36;80.89;101875.44;10307451;28;20122;-77
2022/03/04 06:33:47;;;;;;;30.85;17.50;;;;;;;-3.37;80.94;101878.72;10297164;28;20019;-78
2022/03/04 06:38:47;;;;;;;27.20;16.60;;;;;;;-3.30;81.53;101877.84;10303723;28;20033;-80
2022/03/04 06:43:48;;;;;;;23.47;13.23;;;;;;;-3.27;80.88;101880.75;10333709;28;20062;-78
2022/03/04 06:48:49;;;;;;;25.63;16.23;;;;;;;-3.18;81.32;101883.50;10376813;28;20036;-81
2022/03/04 06:53:49;;;;;;;30.37;15.83;;;;;;;-3.19;81.62;101885.16;10356475;28;20371;-79
2022/03/04 06:58:50;;;;;;;30.27;18.83;;;;;;;-3.01;81.43;101883.84;10375591;28;20072;-80
2022/03/04 07:03:51;;;;;;;24.80;15.93;;;;;;;-2.66;81.22;101889.63;10337180;28;20397;-81
2022/03/04 07:08:51;;;;;;;25.80;16.95;;;;;;;-2.55;80.50;101885.78;10323342;28;20452;-81
2022/03/04 07:13:52;;;;;;;28.57;15.23;;;;;;;-1.66;79.85;101893.22;10324528;28;20089;-81
2022/03/04 07:18:52;;;;;;;26.80;16.58;;;;;;;0.36;76.87;101897.91;10302753;28;20419;-81
2022/03/04 07:23:54;;;;;;;21.65;14.05;;;;;;;1.01;69.13;101880.47;10330929;28;20490;-81
2022/03/04 07:28:55;;;;;;;23.25;14.05;;;;;;;2.79;63.87;101881.47;10330251;28;20406;-81
2022/03/04 07:33:55;;;;;;;23.27;13.45;;;;;;;4.07;56.65;101874.25;10324754;28;20068;-81
2022/03/04 07:38:57;;;;;;;25.65;13.10;;;;;;;4.83;54.01;101878.31;10374036;28;20108;-81
2022/03/04 07:43:59;;;;;;;26.63;15.30;;;;;;;4.11;52.86;101883.22;10340818;28;20038;-80
2022/03/04 07:49:00;;;;;;;23.77;14.65;;;;;;;3.26;56.65;101896.16;10330107;28;20044;-80
2022/03/04 07:54:00;;;;;;;23.13;15.20;;;;;;;2.75;57.90;101898.38;10335047;28;20050;-81
2022/03/04 07:59:01;;;;;;;22.15;14.00;;;;;;;2.72;58.51;101900.69;10374304;28;20037;-78
2022/03/04 08:04:01;;;;;;;29.40;16.10;;;;;;;2.74;56.54;101912.09;10407231;28;20022;-81
2022/03/04 08:09:02;;;;;;;27.08;15.25;;;;;;;2.66;57.86;101907.84;10344671;28;20082;-81
2022/03/04 08:14:02;;;;;;;24.20;14.90;;;;;;;2.69;57.69;101913.31;10324570;28;20034;-81
2022/03/04 08:19:05;;;;;;;29.05;15.93;;;;;;;2.66;57.83;101914.69;10314152;28;20030;-81
2022/03/04 08:24:06;;;;;;;32.95;16.00;;;;;;;2.71;56.99;101914.38;10322105;28;20041;-79
2022/03/04 08:29:10;;;;;;;24.17;15.07;;;;;;;2.74;58.20;101914.66;10307161;28;20435;-79
2022/03/04 08:34:11;;;;;;;28.00;16.58;;;;;;;2.89;56.26;101930.72;10337957;28;20026;-79
2022/03/04 08:39:12;;;;;;;30.65;16.00;;;;;;;2.98;55.75;101928.13;10338730;28;20497;-79
2022/03/04 08:44:12;;;;;;;25.10;15.32;;;;;;;3.26;55.87;101934.97;10324908;28;20096;-79
2022/03/04 08:49:13;;;;;;;22.77;14.10;;;;;;;3.64;55.64;101936.00;10353105;28;20038;-79
2022/03/04 08:54:13;;;;;;;24.80;14.48;;;;;;;3.83;54.47;101945.47;10321202;28;20084;-79
2022/03/04 08:59:14;;;;;;;27.05;15.98;;;;;;;4.07;54.78;101938.13;10316401;28;20054;-80
2022/03/04 09:04:17;;;;;;;24.60;14.02;;;;;;;4.38;53.73;101934.00;10330129;28;20085;-79
2022/03/04 09:09:17;;;;;;;26.50;15.55;;;;;;;4.64;51.69;101942.31;10313877;28;20430;-80
2022/03/04 09:14:19;;;;;;;28.27;16.35;;;;;;;4.74;51.01;101946.63;10351911;28;20117;-79
2022/03/04 09:19:20;;;;;;;28.85;16.42;;;;;;;5.00;53.30;101939.44;10337388;28;20064;-79
2022/03/04 09:24:20;;;;;;;23.33;14.48;;;;;;;5.22;50.22;101948.19;10337016;28;20120;-80
2022/03/04 09:29:21;;;;;;;33.90;18.58;;;;;;;5.32;49.69;101945.63;10334760;28;20494;-81
2022/03/04 09:34:21;;;;;;;28.58;15.82;;;;;;;5.77;48.86;101951.09;10337261;28;20056;-82
2022/03/04 09:39:22;;;;;;;29.52;16.58;;;;;;;6.67;48.86;101940.28;10348833;28;20062;-80
2022/03/04 09:44:22;;;;;;;25.20;15.25;;;;;;;7.83;43.00;101925.81;10314147;28;20078;-82
2022/03/04 09:49:23;;;;;;;30.77;16.27;;;;;;;9.79;39.70;101926.69;10365794;28;20117;-82
2022/03/04 09:54:33;;;;;;;24.65;15.68;;;;;;;14.65;34.49;101913.41;10312614;28;20061;-80
2022/03/04 09:59:33;;;;;;;25.65;16.13;;;;;;;16.65;29.48;101913.25;10300642;28;20019;-83
2022/03/04 10:04:35;;;;;;;31.88;14.65;;;;;;;17.82;26.76;101904.31;10334780;28;20541;-80
2022/03/04 10:09:45;;;;;;;20.40;15.00;;;;;;;17.43;25.29;101911.81;10340716;28;20478;-82
2022/03/04 10:15:21;;;;;;;22.50;14.93;;;;;;;16.11;28.92;101913.75;10340120;28;20032;-79
2022/03/04 10:20:50;;;;;;;21.85;14.57;;;;;;;17.21;28.46;101910.09;10298825;28;20111;-82
2022/03/04 10:25:55;;;;;;;24.35;16.60;;;;;;;18.19;27.19;101900.28;10351915;28;20045;-81
2022/03/04 10:30:56;;;;;;;29.25;15.30;;;;;;;18.74;24.95;101905.53;10337479;28;20121;-80
2022/03/04 10:36:12;;;;;;;21.08;13.40;;;;;;;18.95;25.31;101899.97;10314927;28;20566;-81
2022/03/04 10:41:39;;;;;;;23.00;16.13;;;;;;;19.43;24.80;101896.06;10332727;28;20061;-81
2022/03/04 10:46:56;;;;;;;20.63;14.88;;;;;;;18.06;25.82;101896.31;10320969;28;20050;-80
2022/03/04 10:52:06;;;;;;;22.33;15.25;;;;;;;18.25;24.93;101892.53;10336267;28;20092;-80
2022/03/04 10:57:07;;;;;;;25.25;15.18;;;;;;;19.37;23.80;101888.81;10353934;28;20057;-80
2022/03/04 11:02:07;;;;;;;25.58;15.35;;;;;;;19.47;23.64;101884.66;10335503;28;20121;-80
2022/03/04 11:07:08;;;;;;;23.45;14.30;;;;;;;18.21;24.63;101895.94;10325113;28;20057;-80
2022/03/04 11:12:09;;;;;;;22.70;14.65;;;;;;;19.07;24.37;101884.44;10367133;28;20077;-80
2022/03/04 11:17:09;;;;;;;30.98;15.20;;;;;;;18.15;23.40;101878.06;10342735;28;20517;-81
2022/03/04 11:22:11;;;;;;;29.63;15.48;;;;;;;18.44;24.13;101875.47;10378072;28;20033;-81
2022/03/04 11:27:11;;;;;;;22.02;15.40;;;;;;;19.06;24.45;101873.78;10375883;28;20030;-81
2022/03/04 11:32:12;;;;;;;21.58;15.48;;;;;;;21.17;22.17;101864.69;10317677;28;20108;-81
2022/03/04 11:37:16;;;;;;;17.92;13.73;;;;;;;19.91;22.89;101870.75;10315133;28;20038;-81
2022/03/04 11:42:17;;;;;;;18.88;13.68;;;;;;;19.18;23.75;101866.19;10334987;28;20033;-80
2022/03/04 11:47:17;;;;;;;20.75;12.40;;;;;;;19.18;22.87;101862.59;10321126;28;20050;-80
2022/03/04 11:52:21;;;;;;;21.67;13.05;;;;;;;19.69;22.29;101860.41;10351173;28;20125;-81
2022/03/04 11:57:22;;;;;;;19.30;10.57;;;;;;;21.57;20.00;101868.09;10349302;28;20044;-81
2022/03/04 12:02:27;;;;;;;18.53;12.47;;;;;;;21.57;21.68;101860.09;10340780;28;20083;-81
2022/03/04 12:07:34;;;;;;;17.52;12.73;;;;;;;21.13;19.26;101845.13;10330462;28;20025;-81
2022/03/04 12:12:34;;;;;;;14.43;10.80;;;;;;;19.57;20.21;101848.63;10314569;28;20039;-82
2022/03/04 12:18:04;;;;;;;14.25;8.40;;;;;;;18.77;20.55;101849.94;10314600;28;20478;-81
2022/03/04 12:23:15;;;;;;;16.80;8.35;;;;;;;19.91;19.74;101845.97;10319897;28;20042;-81
2022/03/04 12:28:15;;;;;;;16.98;9.40;;;;;;;18.97;20.38;101839.91;10344121;28;20049;-82
2022/03/04 12:33:16;;;;;;;16.67;11.80;;;;;;;19.58;21.63;101839.78;10347374;28;20026;-82
2022/03/04 12:38:16;;;;;;;11.45;7.60;;;;;;;19.90;19.83;101830.88;10309130;28;20609;-83
2022/03/04 12:43:17;;;;;;;14.93;8.60;;;;;;;18.39;20.71;101828.47;10322946;28;20081;-84
2022/03/04 12:48:18;;;;;;;16.98;7.90;;;;;;;18.01;21.88;101826.41;10357880;28;20132;-81
2022/03/04 12:53:20;;;;;;;14.05;8.57;;;;;;;19.03;21.02;101824.19;10320740;28;20041;-83
2022/03/04 12:58:52;;;;;;;9.37;7.03;;;;;;;18.53;19.79;101812.97;10329086;28;20084;-82
2022/03/04 13:03:57;;;;;;;14.18;6.72;;;;;;;19.46;19.46;101811.19;10318256;28;20819;-83
2022/03/04 13:09:02;;;;;;;9.43;6.05;;;;;;;18.20;19.73;101817.31;10330670;28;20477;-83
2022/03/04 13:14:04;;;;;;;9.43;6.22;;;;;;;18.30;20.08;101805.22;10349567;28;20510;-87
2022/03/04 13:19:04;;;;;;;10.18;7.15;;;;;;;18.66;21.30;101799.22;10338351;28;20023;-86
2022/03/04 13:24:11;;;;;;;13.35;7.95;;;;;;;18.38;21.10;101795.75;10362317;28;20037;-87
2022/03/04 13:29:12;;;;;;;11.38;7.65;;;;;;;18.76;20.26;101795.09;10354779;28;20060;-87
2022/03/04 13:34:13;;;;;;;11.98;6.53;;;;;;;19.63;19.81;101798.31;10339071;28;20029;-85
2022/03/04 13:39:26;;;;;;;16.15;7.60;;;;;;;18.97;20.09;101796.59;10352603;28;20033;-83
2022/03/04 13:44:27;;;;;;;10.77;6.55;;;;;;;19.22;19.54;101790.19;10353639;28;20104;-87
2022/03/04 13:49:47;;;;;;;13.15;8.05;;;;;;;19.34;19.11;101793.16;10355353;28;20120;-86
2022/03/04 13:54:58;;;;;;;14.82;9.43;;;;;;;19.27;19.98;101791.22;10353922;28;20057;-85
2022/03/04 14:00:02;;;;;;;11.90;8.13;;;;;;;19.01;19.92;101785.22;10369103;28;20033;-84
2022/03/04 14:05:03;;;;;;;13.02;8.35;;;;;;;19.94;19.58;101777.84;10312403;28;20634;-83
2022/03/04 14:10:04;;;;;;;14.60;8.82;;;;;;;20.45;17.70;101775.44;10325180;28;20045;-83
2022/03/04 14:15:05;;;;;;;13.25;7.68;;;;;;;19.38;18.22;101775.59;10325491;28;20127;-83
2022/03/04 14:20:08;;;;;;;14.27;10.20;;;;;;;18.22;19.89;101774.94;10320962;28;20037;-81
2022/03/04 14:25:09;;;;;;;14.63;8.88;;;;;;;17.81;21.79;101776.31;10339540;28;20045;-83
2022/03/04 14:30:11;;;;;;;12.70;8.32;;;;;;;18.47;21.12;101764.22;10307910;28;20041;-82
2022/03/04 14:35:14;;;;;;;13.77;8.85;;;;;;;18.68;19.66;101755.09;10321579;28;20026;-84
2022/03/04 14:40:16;;;;;;;17.20;12.57;;;;;;;19.57;21.14;101739.75;10329654;28;20026;-84
2022/03/04 14:45:18;;;;;;;20.90;12.95;;;;;;;19.73;20.70;101749.00;10323886;28;20057;-87
2022/03/04 14:50:19;;;;;;;13.27;9.90;;;;;;;18.02;19.87;101752.31;10319285;28;20036;-85
2022/03/04 14:55:20;;;;;;;13.80;8.70;;;;;;;17.72;20.44;101745.16;10321764;28;20021;-83
2022/03/04 15:00:25;;;;;;;14.33;8.80;;;;;;;17.59;22.10;101745.59;10323152;28;20409;-84
2022/03/04 15:05:28;;;;;;;17.77;10.18;;;;;;;17.28;22.17;101734.88;10351291;28;20445;-83
2022/03/04 15:10:31;;;;;;;15.48;11.88;;;;;;;16.81;24.25;101731.44;10355959;28;20022;-83
2022/03/04 15:15:31;;;;;;;22.30;12.65;;;;;;;17.06;25.04;101743.84;10349586;28;20041;-83
2022/03/04 15:20:34;;;;;;;18.88;12.45;;;;;;;17.55;24.32;101734.00;10338771;28;20026;-82
2022/03/04 15:25:35;;;;;;;16.92;11.18;;;;;;;17.21;24.51;101738.16;10358097;28;20402;-81
2022/03/04 15:30:41;;;;;;;20.92;10.75;;;;;;;16.66;25.21;101740.63;10354030;28;20038;-81
2022/03/04 15:35:42;;;;;;;19.73;12.85;;;;;;;14.86;25.76;101741.34;10319416;28;20065;-81
2022/03/04 15:40:43;;;;;;;15.90;10.67;;;;;;;13.48;27.56;101753.34;10326979;28;20428;-82
2022/03/04 15:45:44;;;;;;;15.90;10.70;;;;;;;12.96;28.40;101755.09;10355613;28;20289;-81
2022/03/04 15:50:44;;;;;;;13.80;8.88;;;;;;;11.95;30.14;101756.63;10334575;28;20022;-81
2022/03/04 15:55:45;;;;;;;13.98;9.00;;;;;;;11.86;29.88;101757.91;10348135;28;20466;-80
2022/03/04 16:00:45;;;;;;;14.05;7.88;;;;;;;11.08;31.97;101756.88;10304200;28;20053;-80
2022/03/04 16:05:46;;;;;;;16.85;9.45;;;;;;;10.80;30.43;101752.59;10317368;28;20481;-80
2022/03/04 16:10:47;;;;;;;16.10;8.98;;;;;;;10.27;30.84;101754.56;10334775;28;20515;-80
2022/03/04 16:15:47;;;;;;;16.42;9.07;;;;;;;9.73;32.71;101753.72;10316999;28;20113;-80
2022/03/04 16:20:48;;;;;;;17.48;9.10;;;;;;;8.95;33.67;101756.44;10316905;28;20030;-80
2022/03/04 16:25:48;;;;;;;16.20;8.05;;;;;;;8.30;35.70;101754.50;10345452;28;20068;-80
2022/03/04 16:30:51;;;;;;;12.05;7.57;;;;;;;7.78;37.37;101747.34;10340667;28;20062;-79
2022/03/04 16:35:51;;;;;;;15.73;9.73;;;;;;;7.62;37.16;101758.38;10336054;28;20033;-79
2022/03/04 16:40:52;;;;;;;17.98;9.52;;;;;;;7.44;37.53;101760.50;10349594;28;20494;-78
2022/03/04 16:45:53;;;;;;;17.60;9.45;;;;;;;7.07;39.58;101761.25;10342547;28;20065;-78
2022/03/04 16:50:53;;;;;;;14.90;7.97;;;;;;;6.58;40.05;101766.16;10366555;28;20553;-78
2022/03/04 16:55:54;;;;;;;19.58;8.93;;;;;;;6.08;42.33;101780.47;10355194;28;20038;-79
2022/03/04 17:00:57;;;;;;;17.52;9.77;;;;;;;5.59;43.54;101777.34;10338916;28;20018;-79
2022/03/04 17:05:57;;;;;;;15.82;9.80;;;;;;;5.16;45.51;101768.59;10359564;28;20081;-79
2022/03/04 17:10:58;;;;;;;21.13;11.95;;;;;;;4.60;48.89;101774.28;10333359;28;20057;-79
2022/03/04 17:15:58;;;;;;;15.68;9.45;;;;;;;4.14;50.50;101786.69;10319175;28;20026;-79
2022/03/04 17:20:59;;;;;;;15.57;9.27;;;;;;;3.78;51.08;101789.66;10361872;28;20450;-79
2022/03/04 17:25:59;;;;;;;17.45;9.65;;;;;;;3.41;52.80;101790.59;10337779;28;20041;-79
2022/03/04 17:31:00;;;;;;;18.42;9.73;;;;;;;2.98;55.11;101808.22;10305139;28;20117;-79
2022/03/04 17:36:01;;;;;;;17.90;9.93;;;;;;;2.67;56.77;101806.25;10299610;28;20042;-81
2022/03/04 17:41:03;;;;;;;21.55;9.30;;;;;;;2.34;59.69;101820.38;10344952;28;20437;-81
2022/03/04 17:46:03;;;;;;;18.63;10.68;;;;;;;2.11;61.23;101819.06;10331764;28;20437;-81
2022/03/04 17:51:04;;;;;;;17.85;9.50;;;;;;;1.95;61.28;101821.81;10349099;28;20048;-81
2022/03/04 17:56:05;;;;;;;16.00;10.85;;;;;;;1.94;61.45;101834.59;10376991;28;20129;-80
2022/03/04 18:01:07;;;;;;;17.58;9.45;;;;;;;1.82;61.25;101824.88;10325404;28;20038;-82
2022/03/04 18:06:07;;;;;;;18.77;9.52;;;;;;;1.87;61.84;101833.06;10355740;28;20041;-80
2022/03/04 18:11:08;;;;;;;20.75;11.50;;;;;;;1.67;62.38;101838.84;10345951;28;20065;-81
2022/03/04 18:16:09;;;;;;;24.77;11.30;;;;;;;1.42;63.02;101831.25;10358165;28;20034;-81
2022/03/04 18:21:10;;;;;;;27.30;13.73;;;;;;;1.29;64.40;101842.94;10346687;28;20359;-80
2022/03/04 18:26:10;;;;;;;38.08;20.15;;;;;;;1.08;66.24;101849.38;10324576;28;20300;-81
2022/03/04 18:31:11;;;;;;;37.08;22.67;;;;;;;0.97;67.68;101852.53;10333332;28;20022;-81
2022/03/04 18:36:11;;;;;;;36.58;21.85;;;;;;;0.72;68.35;101852.59;10304498;28;20041;-79
2022/03/04 18:41:12;;;;;;;35.15;20.83;;;;;;;0.68;69.75;101851.38;10310673;28;20061;-80
2022/03/04 18:46:12;;;;;;;25.27;16.73;;;;;;;0.57;69.00;101849.38;10335981;28;20128;-82
2022/03/04 18:51:13;;;;;;;32.33;17.05;;;;;;;0.58;69.71;101854.66;10359967;28;20042;-82
2022/03/04 18:56:14;;;;;;;28.60;17.50;;;;;;;0.52;69.52;101853.13;10318770;28;20034;-80
2022/03/04 19:01:14;;;;;;;26.73;16.38;;;;;;;0.47;69.89;101854.31;10318679;28;20371;-86
2022/03/04 19:06:15;;;;;;;33.20;19.42;;;;;;;0.40;69.99;101855.34;10347234;28;20092;-86
2022/03/04 19:11:15;;;;;;;32.80;18.23;;;;;;;0.39;70.92;101856.09;10377153;28;20061;-86
2022/03/04 19:16:16;;;;;;;28.70;18.45;;;;;;;0.34;72.79;101862.41;10342221;28;20061;-86
2022/03/04 19:21:16;;;;;;;28.90;19.13;;;;;;;0.33;73.14;101861.53;10377180;28;20022;-86
2022/03/04 19:26:17;;;;;;;29.88;19.05;;;;;;;0.07;73.54;101867.41;10343149;28;20517;-86
2022/03/04 19:31:17;;;;;;;30.65;19.73;;;;;;;-0.22;74.07;101869.44;10301620;28;20066;-86
2022/03/04 19:36:18;;;;;;;32.65;17.60;;;;;;;-0.50;73.97;101880.25;10303449;28;20069;-86
2022/03/04 19:41:18;;;;;;;35.75;20.60;;;;;;;-0.68;74.82;101880.84;10317688;28;20062;-86
2022/03/04 19:46:19;;;;;;;31.85;17.67;;;;;;;-0.87;75.52;101877.91;10323659;28;20049;-86
2022/03/04 19:51:22;;;;;;;28.63;17.65;;;;;;;-0.95;76.34;101882.22;10375908;28;20030;-86
2022/03/04 19:56:25;;;;;;;25.35;16.70;;;;;;;-1.08;76.88;101887.63;10342090;28;20018;-85
2022/03/04 20:01:26;;;;;;;27.45;16.75;;;;;;;-1.25;77.14;101878.97;10303019;28;20425;-86
2022/03/04 20:06:26;;;;;;;28.10;18.17;;;;;;;-1.26;77.54;101882.28;10349388;28;20105;-86
2022/03/04 20:11:27;;;;;;;27.77;16.35;;;;;;;-1.24;77.67;101878.22;10355445;28;20053;-86
2022/03/04 20:16:27;;;;;;;35.10;20.80;;;;;;;-1.22;77.81;101875.84;10353374;28;20108;-82
2022/03/04 20:21:28;;;;;;;35.83;19.58;;;;;;;-1.25;78.67;101868.69;10356899;28;20497;-82
2022/03/04 20:26:29;;;;;;;39.97;22.08;;;;;;;-1.33;78.64;101869.50;10320835;28;20027;-82
2022/03/04 20:31:29;;;;;;;28.50;15.85;;;;;;;-1.31;78.23;101874.81;10314897;28;20486;-83
2022/03/04 20:36:30;;;;;;;33.95;18.27;;;;;;;-1.44;78.24;101869.97;10350691;28;20033;-82
2022/03/04 20:41:30;;;;;;;36.00;17.83;;;;;;;-1.59;78.63;101871.72;10316296;28;20057;-82
2022/03/04 20:46:31;;;;;;;29.52;16.42;;;;;;;-1.73;79.18;101867.59;10334089;28;20061;-79
2022/03/04 20:51:32;;;;;;;27.92;16.98;;;;;;;-1.67;78.86;101856.38;10332475;28;20041;-84
2022/03/04 20:56:32;;;;;;;27.65;17.67;;;;;;;-1.69;79.00;101852.72;10318945;28;20038;-84
2022/03/04 21:01:33;;;;;;;28.00;16.08;;;;;;;-1.81;79.31;101853.91;10320417;28;20516;-83
2022/03/04 21:06:34;;;;;;;31.58;16.30;;;;;;;-1.89;79.58;101858.16;10317920;28;20034;-84
2022/03/04 21:11:34;;;;;;;29.98;16.77;;;;;;;-1.93;80.64;101853.41;10344309;28;20110;-83
2022/03/04 21:16:35;;;;;;;28.63;14.82;;;;;;;-1.90;81.13;101861.47;10325391;28;20120;-86
2022/03/04 21:21:36;;;;;;;28.92;18.58;;;;;;;-1.93;81.79;101863.69;10370922;28;20062;-87
2022/03/04 21:26:37;;;;;;;29.52;15.68;;;;;;;-1.83;80.66;101863.09;10330996;28;20030;-86
2022/03/04 21:31:37;;;;;;;32.35;15.27;;;;;;;-1.85;79.76;101862.91;10314447;28;20028;-86
2022/03/04 21:36:38;;;;;;;25.70;14.60;;;;;;;-1.96;79.40;101864.28;10331288;28;20104;-86
2022/03/04 21:41:39;;;;;;;26.23;16.23;;;;;;;-1.92;79.16;101865.50;10329555;28;20027;-86
2022/03/04 21:46:40;;;;;;;31.83;13.98;;;;;;;-1.92;78.79;101857.81;10334057;28;20038;-83
2022/03/04 21:51:41;;;;;;;34.05;14.85;;;;;;;-1.96;78.49;101863.34;10330972;28;20082;-86
2022/03/04 21:56:42;;;;;;;19.48;12.25;;;;;;;-2.03;78.78;101851.47;10341433;28;20557;-86
2022/03/04 22:01:42;;;;;;;26.53;15.30;;;;;;;-2.12;79.12;101861.59;10324752;28;20030;-86
2022/03/04 22:06:43;;;;;;;22.63;11.75;;;;;;;-2.20;79.60;101864.94;10344159;28;20053;-84
2022/03/04 22:11:43;;;;;;;28.90;15.40;;;;;;;-2.15;79.93;101866.38;10330455;28;20029;-84
2022/03/04 22:16:44;;;;;;;25.60;14.80;;;;;;;-2.38;80.21;101863.75;10327230;28;20034;-86
2022/03/04 22:21:45;;;;;;;26.73;15.65;;;;;;;-2.57;80.65;101861.63;10339737;28;20121;-86
2022/03/04 22:26:46;;;;;;;30.85;15.60;;;;;;;-2.71;81.21;101849.72;10306563;28;20070;-86
2022/03/04 22:31:47;;;;;;;27.63;13.63;;;;;;;-2.87;81.61;101846.13;10310233;28;20025;-84
2022/03/04 22:36:47;;;;;;;19.30;14.97;;;;;;;-2.96;82.54;101845.97;10330738;28;20497;-85
2022/03/04 22:41:48;;;;;;;25.73;14.93;;;;;;;-2.97;82.87;101845.03;10373593;28;20057;-84